createdAt,value
2022-12-15T00:02:18.793Z,4.82
2022-12-15T00:05:04.297Z,4.93
2022-12-15T00:07:49.834Z,5.02
2022-12-15T00:10:35.192Z,5.00
2022-12-15T00:13:20.637Z,5.05
2022-12-15T00:16:06.854Z,5.09
2022-12-15T00:18:52.396Z,4.91
2022-12-15T00:21:37.990Z,4.89
2022-12-15T00:24:23.345Z,5.04
2022-12-15T00:27:09.019Z,5.01
2022-12-15T00:29:54.388Z,5.00
2022-12-15T00:32:40.835Z,4.96
2022-12-15T00:35:26.445Z,4.85
2022-12-15T00:38:11.734Z,4.73
2022-12-15T00:40:38.400Z,4.79
2022-12-15T00:43:05.137Z,4.74
2022-12-15T00:46:01.367Z,4.69
2022-12-15T00:48:28.046Z,4.54
2022-12-15T00:50:54.704Z,4.63
2022-12-15T00:53:41.962Z,4.69
2022-12-15T00:56:28.395Z,4.80
2022-12-15T00:59:14.038Z,4.77
2022-12-15T01:01:59.594Z,4.81
2022-12-15T01:04:45.868Z,4.78
2022-12-15T01:07:31.368Z,4.96
2022-12-15T01:10:16.741Z,4.91
2022-12-15T01:13:02.422Z,4.92
2022-12-15T01:15:47.932Z,4.95
2022-12-15T01:18:33.368Z,4.99
2022-12-15T01:21:02.561Z,5.21
2022-12-15T01:23:30.679Z,5.36
2022-12-15T01:25:57.922Z,5.07
2022-12-15T01:28:24.920Z,5.10
2022-12-15T01:30:51.594Z,5.04
2022-12-15T01:33:19.998Z,5.13
2022-12-15T01:35:58.238Z,5.15
2022-12-15T01:38:26.099Z,5.15
2022-12-15T01:40:59.412Z,5.19
2022-12-15T01:43:30.351Z,5.40
2022-12-15T01:46:00.404Z,5.48
2022-12-15T01:48:33.971Z,5.57
2022-12-15T01:51:03.391Z,5.41
2022-12-15T01:53:34.973Z,5.57
2022-12-15T01:56:03.990Z,5.36
2022-12-15T01:58:31.135Z,5.30
2022-12-15T02:00:58.542Z,5.24
2022-12-15T02:03:25.442Z,5.33
2022-12-15T02:05:53.314Z,5.51
2022-12-15T02:08:20.123Z,5.70
2022-12-15T02:10:57.879Z,5.82
2022-12-15T02:13:31.135Z,5.68
2022-12-15T02:16:14.578Z,5.92
2022-12-15T02:19:28.800Z,6.03
2022-12-15T02:21:55.426Z,5.65
2022-12-15T02:24:45.822Z,5.64
2022-12-15T02:27:47.327Z,5.72
2022-12-15T02:30:39.222Z,5.72
2022-12-15T02:33:08.706Z,5.61
2022-12-15T02:35:44.448Z,5.85
2022-12-15T02:38:11.282Z,5.53
2022-12-15T02:40:39.350Z,5.66
2022-12-15T02:43:07.786Z,5.67
2022-12-15T02:45:55.091Z,5.60
2022-12-15T02:48:36.006Z,5.39
2022-12-15T02:51:08.492Z,5.57
2022-12-15T02:53:43.931Z,5.73
2022-12-15T02:56:32.412Z,5.55
2022-12-15T02:59:19.250Z,5.57
2022-12-15T03:01:55.235Z,5.42
2022-12-15T03:04:22.981Z,5.36
2022-12-15T03:07:03.990Z,5.59
2022-12-15T03:09:31.141Z,5.60
2022-12-15T03:11:57.925Z,5.41
2022-12-15T03:14:27.588Z,5.44
2022-12-15T03:16:55.221Z,5.52
2022-12-15T03:19:22.058Z,5.48
2022-12-15T03:21:48.843Z,5.44
2022-12-15T03:24:15.582Z,5.44
2022-12-15T03:26:43.772Z,5.45
2022-12-15T03:29:10.793Z,5.38
2022-12-15T03:31:37.477Z,5.43
2022-12-15T03:34:04.303Z,5.45
2022-12-15T03:36:31.023Z,5.47
2022-12-15T03:38:57.679Z,5.48
2022-12-15T03:41:24.341Z,5.54
2022-12-15T03:43:51.044Z,5.62
2022-12-15T03:46:17.795Z,5.52
2022-12-15T03:48:44.491Z,5.58
2022-12-15T03:51:11.346Z,5.79
2022-12-15T03:53:38.042Z,5.86
2022-12-15T03:56:05.150Z,5.89
2022-12-15T03:58:31.862Z,5.87
2022-12-15T04:00:58.526Z,6.07
2022-12-15T04:03:25.262Z,6.11
2022-12-15T04:05:52.030Z,6.17
2022-12-15T04:08:18.697Z,6.15
2022-12-15T04:10:45.373Z,5.98
2022-12-15T04:13:12.585Z,6.27
2022-12-15T04:15:40.319Z,6.30
2022-12-15T04:18:10.224Z,6.28
2022-12-15T04:20:38.986Z,6.36
2022-12-15T04:23:08.124Z,6.41
2022-12-15T04:25:55.167Z,6.23
2022-12-15T04:28:40.753Z,6.36
2022-12-15T04:31:52.718Z,6.45
2022-12-15T04:34:42.568Z,6.39
2022-12-15T04:37:32.499Z,6.53
2022-12-15T04:40:18.500Z,6.56
2022-12-15T04:43:06.278Z,6.60
2022-12-15T04:45:52.312Z,6.38
2022-12-15T04:48:37.960Z,6.55
2022-12-15T04:51:24.056Z,6.55
2022-12-15T04:54:09.615Z,6.63
2022-12-15T04:56:55.142Z,6.76
2022-12-15T04:59:40.462Z,6.71
2022-12-15T05:02:25.944Z,6.78
2022-12-15T05:05:11.022Z,6.87
2022-12-15T05:07:55.940Z,6.84
2022-12-15T05:10:41.540Z,6.74
2022-12-15T05:13:27.641Z,6.83
2022-12-15T05:16:12.993Z,6.54
2022-12-15T05:18:58.345Z,6.78
2022-12-15T05:21:43.782Z,6.83
2022-12-15T05:24:29.242Z,6.63
2022-12-15T05:27:14.468Z,6.77
2022-12-15T05:29:59.871Z,6.77
2022-12-15T05:32:26.571Z,6.71
2022-12-15T05:34:53.188Z,6.84
2022-12-15T05:37:19.835Z,6.84
2022-12-15T05:39:46.528Z,6.89
2022-12-15T05:42:13.148Z,6.69
2022-12-15T05:44:39.765Z,6.69
2022-12-15T05:47:08.321Z,6.68
2022-12-15T05:49:35.847Z,6.79
2022-12-15T05:52:02.857Z,6.96
2022-12-15T05:54:29.502Z,7.12
2022-12-15T05:56:56.171Z,7.10
2022-12-15T05:59:22.831Z,7.12
2022-12-15T06:01:49.655Z,7.18
2022-12-15T06:04:16.577Z,7.32
2022-12-15T06:06:43.376Z,7.30
2022-12-15T06:09:10.357Z,7.33
2022-12-15T06:11:37.624Z,7.40
2022-12-15T06:14:04.894Z,7.33
2022-12-15T06:16:32.008Z,7.37
2022-12-15T06:19:00.794Z,7.41
2022-12-15T06:21:30.702Z,7.45
2022-12-15T06:23:57.916Z,7.44
2022-12-15T06:26:29.996Z,7.40
2022-12-15T06:28:59.585Z,7.51
2022-12-15T06:31:26.834Z,7.51
2022-12-15T06:34:00.892Z,7.63
2022-12-15T06:36:29.026Z,7.64
2022-12-15T06:38:59.390Z,7.59
2022-12-15T06:41:26.383Z,7.61
2022-12-15T06:43:57.702Z,7.68
2022-12-15T06:46:25.981Z,7.61
2022-12-15T06:48:53.333Z,7.66
2022-12-15T06:51:20.907Z,7.61
2022-12-15T06:53:54.029Z,7.40
2022-12-15T06:56:32.704Z,7.56
2022-12-15T06:59:00.687Z,7.55
2022-12-15T07:01:28.166Z,7.63
2022-12-15T07:03:55.756Z,7.64
2022-12-15T07:06:23.194Z,7.71
2022-12-15T07:08:52.948Z,7.72
2022-12-15T07:11:21.426Z,7.73
2022-12-15T07:13:52.936Z,7.57
2022-12-15T07:16:21.661Z,7.73
2022-12-15T07:18:49.446Z,7.70
2022-12-15T07:21:16.128Z,7.68
2022-12-15T07:23:58.757Z,7.84
2022-12-15T07:26:26.290Z,7.85
2022-12-15T07:28:54.001Z,7.83
2022-12-15T07:31:21.426Z,7.88
2022-12-15T07:33:48.631Z,8.00
2022-12-15T07:36:15.425Z,7.88
2022-12-15T07:38:42.135Z,7.94
2022-12-15T07:41:10.020Z,8.01
2022-12-15T07:43:38.091Z,7.88
2022-12-15T07:46:05.513Z,7.93
2022-12-15T07:48:32.983Z,8.01
2022-12-15T07:51:09.577Z,7.94
2022-12-15T07:53:39.338Z,7.94
2022-12-15T07:56:09.077Z,7.86
2022-12-15T07:58:37.125Z,7.79
2022-12-15T08:01:06.855Z,7.81
2022-12-15T08:03:34.768Z,7.70
2022-12-15T08:06:12.791Z,7.83
2022-12-15T08:08:40.366Z,7.68
2022-12-15T08:11:12.015Z,7.56
2022-12-15T08:16:27.180Z,7.55
2022-12-15T08:18:54.514Z,7.58
2022-12-15T08:21:21.205Z,7.57
2022-12-15T08:23:48.147Z,7.48
2022-12-15T08:26:17.060Z,7.52
2022-12-15T08:28:44.819Z,7.67
2022-12-15T08:31:22.709Z,7.67
2022-12-15T08:33:50.109Z,7.75
2022-12-15T08:36:18.486Z,7.75
2022-12-15T08:38:46.169Z,7.77
2022-12-15T08:41:19.469Z,7.74
2022-12-15T08:43:49.165Z,7.60
2022-12-15T08:46:18.199Z,7.52
2022-12-15T08:48:45.407Z,7.70
2022-12-15T08:51:12.300Z,7.62
2022-12-15T08:53:39.257Z,7.55
2022-12-15T08:56:08.793Z,7.48
2022-12-15T08:58:35.538Z,7.63
2022-12-15T09:01:07.562Z,7.74
2022-12-15T09:03:36.172Z,7.75
2022-12-15T09:06:04.001Z,7.90
2022-12-15T09:08:31.371Z,8.07
2022-12-15T09:11:02.014Z,8.24
2022-12-15T09:13:29.649Z,8.21
2022-12-15T09:16:10.414Z,8.33
2022-12-15T09:18:38.012Z,8.04
2022-12-15T09:21:07.365Z,8.08
2022-12-15T09:23:36.016Z,8.03
2022-12-15T09:26:08.953Z,8.21
2022-12-15T09:28:35.888Z,8.06
2022-12-15T09:31:05.143Z,8.18
2022-12-15T09:33:32.283Z,8.20
2022-12-15T09:35:59.368Z,8.45
2022-12-15T09:38:26.453Z,8.80
2022-12-15T09:40:53.244Z,9.66
2022-12-15T09:43:46.120Z,9.87
2022-12-15T09:46:36.161Z,10.08
2022-12-15T09:49:11.613Z,10.00
2022-12-15T09:51:50.406Z,9.91
2022-12-15T09:54:17.243Z,10.40
2022-12-15T09:56:53.227Z,10.23
2022-12-15T09:59:31.972Z,10.49
2022-12-15T10:02:39.924Z,10.12
2022-12-15T10:05:12.778Z,9.41
2022-12-15T10:07:43.953Z,9.50
2022-12-15T10:10:25.672Z,9.82
2022-12-15T10:13:02.026Z,10.04
2022-12-15T10:15:42.007Z,9.80
2022-12-15T10:18:22.707Z,10.13
2022-12-15T10:20:52.707Z,10.15
2022-12-15T10:23:19.480Z,10.26
2022-12-15T10:26:11.928Z,10.10
2022-12-15T10:29:09.438Z,10.69
2022-12-15T10:31:53.868Z,10.72
2022-12-15T10:34:35.029Z,10.56
2022-12-15T10:37:02.012Z,10.47
2022-12-15T10:39:43.368Z,10.35
2022-12-15T10:42:16.074Z,10.42
2022-12-15T10:44:50.393Z,10.09
2022-12-15T10:47:34.024Z,10.23
2022-12-15T10:50:25.216Z,10.46
2022-12-15T10:52:52.205Z,10.53
2022-12-15T10:55:40.686Z,10.74
2022-12-15T10:58:19.769Z,10.92
2022-12-15T11:00:47.068Z,10.94
2022-12-15T11:03:26.599Z,11.45
2022-12-15T11:05:56.241Z,11.34
2022-12-15T11:08:24.933Z,11.48
2022-12-15T11:11:15.912Z,11.54
2022-12-15T11:13:44.679Z,11.47
2022-12-15T11:16:15.588Z,11.39
2022-12-15T11:19:11.368Z,12.07
2022-12-15T11:22:02.560Z,12.81
2022-12-15T11:24:36.630Z,13.26
2022-12-15T11:27:31.955Z,13.50
2022-12-15T11:30:16.994Z,13.93
2022-12-15T11:32:48.865Z,14.09
2022-12-15T11:35:20.774Z,14.54
2022-12-15T11:37:56.760Z,13.95
2022-12-15T11:40:40.441Z,13.69
2022-12-15T11:43:16.195Z,13.49
2022-12-15T11:46:01.239Z,13.53
2022-12-15T11:48:54.800Z,13.65
2022-12-15T11:51:31.925Z,13.24
2022-12-15T11:54:10.862Z,12.98
2022-12-15T11:56:44.013Z,13.48
2022-12-15T11:59:30.583Z,13.28
2022-12-15T12:02:34.788Z,13.21
2022-12-15T12:05:01.548Z,13.21
2022-12-15T12:07:57.297Z,12.78
2022-12-15T12:10:52.581Z,13.54
2022-12-15T12:13:28.482Z,13.19
2022-12-15T12:16:10.672Z,13.32
2022-12-15T12:18:50.508Z,13.36
2022-12-15T12:21:23.538Z,13.28
2022-12-15T12:23:56.323Z,13.34
2022-12-15T12:26:32.088Z,13.69
2022-12-15T12:29:34.692Z,12.98
2022-12-15T12:32:07.487Z,13.21
2022-12-15T12:35:32.127Z,13.03
2022-12-15T12:38:03.063Z,13.35
2022-12-15T12:40:53.864Z,13.41
2022-12-15T12:43:55.807Z,13.07
2022-12-15T12:46:34.452Z,12.27
2022-12-15T12:49:17.707Z,12.10
2022-12-15T12:51:53.416Z,12.36
2022-12-15T12:54:38.340Z,11.94
2022-12-15T12:57:14.278Z,11.85
2022-12-15T12:59:43.944Z,11.73
2022-12-15T13:02:15.716Z,11.81
2022-12-15T13:04:49.335Z,11.45
2022-12-15T13:07:37.849Z,11.56
2022-12-15T13:10:19.534Z,11.42
2022-12-15T13:12:51.616Z,11.42
2022-12-15T13:15:28.904Z,11.50
2022-12-15T13:18:01.054Z,11.41
2022-12-15T13:20:33.103Z,11.44
2022-12-15T13:23:19.988Z,11.44
2022-12-15T13:25:55.865Z,11.43
2022-12-15T13:28:42.781Z,11.39
2022-12-15T13:31:21.395Z,11.43
2022-12-15T13:33:51.500Z,11.42
2022-12-15T13:36:36.841Z,11.20
2022-12-15T13:39:12.666Z,11.20
2022-12-15T13:42:00.220Z,11.22
2022-12-15T13:44:35.775Z,11.39
2022-12-15T13:47:13.014Z,11.42
2022-12-15T13:49:53.138Z,11.43
2022-12-15T13:52:44.243Z,11.35
2022-12-15T13:55:27.771Z,11.27
2022-12-15T13:58:00.191Z,11.26
2022-12-15T14:00:26.926Z,11.18
2022-12-15T14:03:06.749Z,11.07
2022-12-15T14:05:33.787Z,11.10
2022-12-15T14:08:03.540Z,10.91
2022-12-15T14:10:41.789Z,10.76
2022-12-15T14:13:18.752Z,10.83
2022-12-15T14:15:58.270Z,10.83
2022-12-15T14:18:30.602Z,10.74
2022-12-15T14:20:58.846Z,10.88
2022-12-15T14:23:38.557Z,10.96
2022-12-15T14:26:08.523Z,10.85
2022-12-15T14:28:38.411Z,10.75
2022-12-15T14:31:17.277Z,10.76
2022-12-15T14:33:50.767Z,10.60
2022-12-15T14:36:19.973Z,10.45
2022-12-15T14:38:52.437Z,10.45
2022-12-15T14:41:32.770Z,10.51
2022-12-15T14:44:31.907Z,10.35
2022-12-15T14:47:08.475Z,10.37
2022-12-15T14:49:42.529Z,10.29
2022-12-15T14:52:20.755Z,10.24
2022-12-15T14:55:29.274Z,10.24
2022-12-15T14:57:56.082Z,10.14
2022-12-15T15:00:28.771Z,10.12
2022-12-15T15:05:59.929Z,9.98
2022-12-15T15:08:31.258Z,9.88
2022-12-15T15:11:29.573Z,9.88
2022-12-15T15:14:03.125Z,9.70
2022-12-15T15:16:29.974Z,9.53
2022-12-15T15:18:59.660Z,9.51
2022-12-15T15:21:29.836Z,9.54
2022-12-15T15:24:10.776Z,9.59
2022-12-15T15:26:38.400Z,9.57
2022-12-15T15:29:30.729Z,9.62
2022-12-15T15:32:17.660Z,9.71
2022-12-15T15:34:45.124Z,9.62
2022-12-15T15:37:24.316Z,9.58
2022-12-15T15:39:54.494Z,9.58
2022-12-15T15:42:25.478Z,9.73
2022-12-15T15:44:55.870Z,9.59
2022-12-15T15:47:25.819Z,9.72
2022-12-15T15:49:54.982Z,9.77
2022-12-15T15:52:22.537Z,9.70
2022-12-15T15:54:49.539Z,9.72
2022-12-15T15:57:18.072Z,9.63
2022-12-15T15:59:46.431Z,9.70
2022-12-15T16:02:14.503Z,9.65
2022-12-15T16:04:43.130Z,9.64
2022-12-15T16:07:22.681Z,9.60
2022-12-15T16:09:49.577Z,9.52
2022-12-15T16:12:29.147Z,9.50
2022-12-15T16:14:56.531Z,9.35
2022-12-15T16:17:25.181Z,8.78
2022-12-15T16:19:51.875Z,8.88
2022-12-15T16:22:21.272Z,8.62
2022-12-15T16:24:48.517Z,8.58
2022-12-15T16:27:15.869Z,8.15
2022-12-15T16:29:42.641Z,8.08
2022-12-15T16:32:11.241Z,7.84
2022-12-15T16:34:38.032Z,7.95
2022-12-15T16:37:05.211Z,7.75
2022-12-15T16:39:34.113Z,7.89
2022-12-15T16:42:01.444Z,7.98
2022-12-15T16:44:29.474Z,8.02
2022-12-15T16:46:57.378Z,8.03
2022-12-15T16:49:24.359Z,8.12
2022-12-15T16:51:53.708Z,8.38
2022-12-15T16:54:24.463Z,8.45
2022-12-15T16:56:53.303Z,8.31
2022-12-15T16:59:34.985Z,8.44
2022-12-15T17:02:19.896Z,8.47
2022-12-15T17:04:46.680Z,8.70
2022-12-15T17:07:19.718Z,8.67
2022-12-15T17:09:48.427Z,8.71
2022-12-15T17:12:20.182Z,8.42
2022-12-15T17:14:46.960Z,8.26
2022-12-15T17:17:18.896Z,8.48
2022-12-15T17:20:11.832Z,8.22
2022-12-15T17:22:33.528Z,8.12
2022-12-15T17:25:00.255Z,8.10
2022-12-15T17:27:29.532Z,7.97
2022-12-15T17:29:59.243Z,7.69
2022-12-15T17:32:25.931Z,7.93
2022-12-15T17:34:52.589Z,8.04
2022-12-15T17:37:19.313Z,8.13
2022-12-15T17:39:51.298Z,8.17
2022-12-15T17:42:20.489Z,8.27
2022-12-15T17:44:48.883Z,8.22
2022-12-15T17:47:17.033Z,8.30
2022-12-15T17:49:44.485Z,8.22
2022-12-15T17:52:28.506Z,8.23
2022-12-15T17:54:56.028Z,8.09
2022-12-15T17:57:22.839Z,8.05
2022-12-15T17:59:49.518Z,8.12
2022-12-15T18:02:16.482Z,8.10
2022-12-15T18:04:43.795Z,8.27
2022-12-15T18:07:30.702Z,8.28
2022-12-15T18:09:57.359Z,8.55
2022-12-15T18:12:26.975Z,8.43
2022-12-15T18:14:55.316Z,8.19
2022-12-15T18:17:23.285Z,8.31
2022-12-15T18:19:50.030Z,8.48
2022-12-15T18:22:24.347Z,8.19
2022-12-15T18:24:53.235Z,8.05
2022-12-15T18:27:28.734Z,7.97
2022-12-15T18:29:56.676Z,7.61
2022-12-15T18:32:26.301Z,7.46
2022-12-15T18:34:53.978Z,7.31
2022-12-15T18:37:23.217Z,7.16
2022-12-15T18:39:50.713Z,7.00
2022-12-15T18:42:22.059Z,6.98
2022-12-15T18:44:51.663Z,7.03
2022-12-15T18:47:22.420Z,6.95
2022-12-15T18:49:49.427Z,6.79
2022-12-15T18:52:24.520Z,6.82
2022-12-15T18:54:55.504Z,6.80
2022-12-15T18:57:26.684Z,6.82
2022-12-15T18:59:57.498Z,6.73
2022-12-15T19:02:24.277Z,6.68
2022-12-15T19:04:51.100Z,6.67
2022-12-15T19:07:17.827Z,6.60
2022-12-15T19:09:44.565Z,6.66
2022-12-15T19:12:18.242Z,6.71
2022-12-15T19:14:50.724Z,6.61
2022-12-15T19:17:40.859Z,6.53
2022-12-15T19:20:37.950Z,6.29
2022-12-15T19:23:05.572Z,6.28
2022-12-15T19:25:33.068Z,6.30
2022-12-15T19:28:01.123Z,6.19
2022-12-15T19:30:30.465Z,6.12
2022-12-15T19:32:57.606Z,6.10
2022-12-15T19:35:25.558Z,6.11
2022-12-15T19:37:55.384Z,5.55
2022-12-15T19:40:27.585Z,6.01
2022-12-15T19:42:55.690Z,6.02
2022-12-15T19:45:28.257Z,6.02
2022-12-15T19:47:55.696Z,6.06
2022-12-15T19:50:25.748Z,5.86
2022-12-15T19:52:56.756Z,5.80
2022-12-15T19:55:41.975Z,5.83
2022-12-15T19:58:27.483Z,5.80
2022-12-15T20:01:00.947Z,5.86
2022-12-15T20:03:29.932Z,5.91
2022-12-15T20:05:58.470Z,6.05
2022-12-15T20:08:33.002Z,5.88
2022-12-15T20:11:00.124Z,5.90
2022-12-15T20:13:26.810Z,6.00
2022-12-15T20:15:54.413Z,6.00
2022-12-15T20:18:21.149Z,5.98
2022-12-15T20:20:49.538Z,6.01
2022-12-15T20:23:23.801Z,6.10
2022-12-15T20:25:50.671Z,5.92
2022-12-15T20:28:24.043Z,6.12
2022-12-15T20:30:51.823Z,5.96
2022-12-15T20:33:19.195Z,5.99
2022-12-15T20:35:48.283Z,5.97
2022-12-15T20:38:17.690Z,5.93
2022-12-15T20:40:44.562Z,5.97
2022-12-15T20:43:16.322Z,6.02
2022-12-15T20:45:45.265Z,6.03
2022-12-15T20:48:13.857Z,6.16
2022-12-15T20:50:46.928Z,6.34
2022-12-15T20:53:26.147Z,6.39
2022-12-15T20:55:55.163Z,6.32
2022-12-15T20:58:22.523Z,6.25
2022-12-15T21:00:51.830Z,6.41
2022-12-15T21:03:25.926Z,6.40
2022-12-15T21:05:55.922Z,6.22
2022-12-15T21:08:28.293Z,6.36
2022-12-15T21:11:00.281Z,6.37
2022-12-15T21:13:31.181Z,6.10
2022-12-15T21:15:58.105Z,6.06
2022-12-15T21:21:33.975Z,5.85
2022-12-15T21:24:04.545Z,6.04
2022-12-15T21:26:31.184Z,6.06
2022-12-15T21:29:00.940Z,5.98
2022-12-15T21:31:27.772Z,5.75
2022-12-15T21:33:54.954Z,5.70
2022-12-15T21:36:22.454Z,5.70
2022-12-15T21:38:52.201Z,5.60
2022-12-15T21:41:22.130Z,5.60
2022-12-15T21:43:49.836Z,5.57
2022-12-15T21:46:26.089Z,5.62
2022-12-15T21:49:13.827Z,5.71
2022-12-15T21:51:43.503Z,5.59
2022-12-15T21:54:19.416Z,5.37
2022-12-15T21:56:48.072Z,5.31
2022-12-15T21:59:17.305Z,5.28
2022-12-15T22:01:44.338Z,4.96
2022-12-15T22:04:16.472Z,4.94
2022-12-15T22:06:48.654Z,5.11
2022-12-15T22:09:18.607Z,5.02
2022-12-15T22:11:48.492Z,4.66
2022-12-15T22:14:24.442Z,4.45
2022-12-15T22:16:51.528Z,4.53
2022-12-15T22:19:18.615Z,4.44
2022-12-15T22:21:45.345Z,4.41
2022-12-15T22:24:12.422Z,4.38
2022-12-15T22:26:40.579Z,4.42
2022-12-15T22:29:15.678Z,4.43
2022-12-15T22:31:42.311Z,4.41
2022-12-15T22:34:17.338Z,4.68
2022-12-15T22:36:44.480Z,4.78
2022-12-15T22:39:11.355Z,4.57
2022-12-15T22:41:43.888Z,4.48
2022-12-15T22:44:18.500Z,4.19
2022-12-15T22:46:45.735Z,4.18
2022-12-15T22:49:21.712Z,4.03
2022-12-15T22:51:48.675Z,4.05
2022-12-15T22:54:26.486Z,4.02
2022-12-15T22:57:00.903Z,3.95
2022-12-15T22:59:33.919Z,3.95
2022-12-15T23:02:02.666Z,4.01
2022-12-15T23:04:30.827Z,3.86
2022-12-15T23:06:59.280Z,3.75
2022-12-15T23:09:26.147Z,3.93
2022-12-15T23:11:53.177Z,3.81
2022-12-15T23:14:44.923Z,3.91
2022-12-15T23:17:13.611Z,3.90
2022-12-15T23:19:46.942Z,3.84
2022-12-15T23:22:14.113Z,3.77
2022-12-15T23:24:40.938Z,3.75
2022-12-15T23:27:11.591Z,3.87
2022-12-15T23:29:38.360Z,3.96
2022-12-15T23:32:05.269Z,3.92
2022-12-15T23:34:31.930Z,3.94
2022-12-15T23:36:58.670Z,3.96
2022-12-15T23:39:25.303Z,3.97
2022-12-15T23:41:52.116Z,3.99
2022-12-15T23:44:18.766Z,3.97
2022-12-15T23:46:46.847Z,3.90
2022-12-15T23:49:13.727Z,3.93
2022-12-15T23:51:40.328Z,3.96
2022-12-15T23:54:06.976Z,3.88
2022-12-15T23:56:33.729Z,3.93
2022-12-15T23:59:00.402Z,3.91
